Time;durP1;ratioP1;P1;durP2;ratioP2;P2;SDS_P1;SDS_P2;PMS_P1;PMS_P2;Temp;Humidity;BMP_temperature;BMP_pressure;BME280_temperature;BME280_humidity;BME280_pressure;Samples;Min_cycle;Max_cycle;Signal;HPM_P1;HPM_P2
2021/04/30 00:00:29;;;;;;;10.43;8.80;;;;;;;12.35;61.34;99156.75;1723350;82;21211;-73
2021/04/30 00:02:56;;;;;;;12.05;9.45;;;;;;;12.32;61.48;99152.23;1723422;83;21158;-73
2021/04/30 00:05:26;;;;;;;12.78;10.28;;;;;;;12.28;61.59;99156.45;1724116;82;21575;-73
2021/04/30 00:07:53;;;;;;;14.55;11.25;;;;;;;12.24;61.76;99153.72;1725726;83;21722;-73
2021/04/30 00:10:24;;;;;;;9.80;8.40;;;;;;;12.23;61.87;99159.16;1728324;82;21328;-73
2021/04/30 00:12:52;;;;;;;15.63;9.75;;;;;;;12.28;61.97;99159.10;1723963;82;21111;-73
2021/04/30 00:15:19;;;;;;;11.35;9.45;;;;;;;12.40;61.67;99151.05;1727738;82;21139;-73
2021/04/30 00:17:46;;;;;;;11.25;9.98;;;;;;;12.39;61.79;99158.66;1731520;82;21190;-73
2021/04/30 00:20:15;;;;;;;12.30;9.53;;;;;;;12.37;61.82;99151.34;1723598;82;21195;-73
2021/04/30 00:22:43;;;;;;;12.13;10.00;;;;;;;12.35;61.93;99156.75;1723473;83;21179;-73
2021/04/30 00:25:11;;;;;;;12.43;8.65;;;;;;;12.33;62.05;99152.55;1725290;82;21163;-73
2021/04/30 00:27:38;;;;;;;12.53;8.95;;;;;;;12.36;62.07;99152.30;1738301;82;21168;-73
2021/04/30 00:30:08;;;;;;;10.53;8.70;;;;;;;12.51;61.84;99149.63;1737409;82;21135;-73
2021/04/30 00:32:35;;;;;;;11.33;9.33;;;;;;;12.56;61.77;99150.56;1736842;82;21266;-73
2021/04/30 00:35:04;;;;;;;12.58;9.48;;;;;;;12.52;61.79;99152.64;1682889;82;21172;-73
2021/04/30 00:37:31;;;;;;;12.63;9.13;;;;;;;12.51;61.84;99142.17;1734662;82;21167;-73
2021/04/30 00:39:58;;;;;;;12.90;10.00;;;;;;;12.51;61.78;99150.13;1728704;82;21170;-73
2021/04/30 00:42:25;;;;;;;9.80;7.67;;;;;;;12.52;61.78;99149.98;1724156;82;21143;-73
2021/04/30 00:44:53;;;;;;;11.43;8.88;;;;;;;12.62;61.64;99148.20;1724518;82;21755;-73
2021/04/30 00:47:26;;;;;;;10.53;9.20;;;;;;;12.76;61.28;99152.28;1738351;82;21199;-73
2021/04/30 00:49:53;;;;;;;10.68;8.48;;;;;;;12.76;61.21;99138.16;1738527;82;21172;-73
2021/04/30 00:52:20;;;;;;;11.73;9.90;;;;;;;12.72;61.26;99136.27;1738228;82;21457;-73
2021/04/30 00:54:48;;;;;;;12.98;9.53;;;;;;;12.70;61.34;99148.84;1726593;82;21179;-73
2021/04/30 00:57:16;;;;;;;12.00;9.80;;;;;;;12.67;61.44;99146.95;1724136;82;21277;-73
2021/04/30 00:59:43;;;;;;;9.88;8.58;;;;;;;12.64;61.55;99139.27;1723705;82;21627;-72
2021/04/30 01:02:13;;;;;;;9.80;8.53;;;;;;;12.73;61.46;99145.08;1725509;82;21273;-73
2021/04/30 01:04:41;;;;;;;11.22;9.03;;;;;;;12.76;61.35;99135.50;1724868;82;21147;-73
2021/04/30 01:07:08;;;;;;;12.47;9.68;;;;;;;12.71;61.33;99129.30;1737656;82;21183;-73
2021/04/30 01:09:36;;;;;;;12.60;9.50;;;;;;;12.69;61.45;99142.35;1729073;82;21190;-73
2021/04/30 01:12:04;;;;;;;12.45;9.98;;;;;;;12.66;61.56;99130.67;1731480;82;21201;-73
2021/04/30 01:14:35;;;;;;;9.15;8.15;;;;;;;12.62;61.63;99128.30;1717366;83;21095;-74
2021/04/30 01:17:04;;;;;;;11.53;8.85;;;;;;;12.64;61.65;99128.66;1725251;82;21200;-73
2021/04/30 01:19:33;;;;;;;11.75;9.75;;;;;;;12.74;61.45;99125.53;1723056;83;21338;-73
2021/04/30 01:22:00;;;;;;;13.50;9.80;;;;;;;12.71;61.43;99119.16;1726105;82;21266;-72
2021/04/30 01:24:28;;;;;;;13.30;9.90;;;;;;;12.67;61.52;99117.77;1723159;83;21182;-73
2021/04/30 01:26:56;;;;;;;11.70;10.03;;;;;;;12.59;61.71;99119.27;1722768;83;21291;-73
2021/04/30 01:29:23;;;;;;;13.35;9.28;;;;;;;12.58;61.93;99115.44;1722747;83;21593;-72
2021/04/30 01:31:50;;;;;;;13.15;9.40;;;;;;;12.56;62.04;99116.91;1724649;82;21198;-73
2021/04/30 01:34:17;;;;;;;12.37;9.65;;;;;;;12.68;61.85;99120.77;1730876;82;21643;-72
2021/04/30 01:36:44;;;;;;;14.47;10.72;;;;;;;12.68;61.67;99111.48;1726169;82;21171;-75
2021/04/30 01:39:14;;;;;;;11.65;9.20;;;;;;;12.63;61.70;99109.23;1731778;82;21154;-73
2021/04/30 01:41:42;;;;;;;19.62;14.03;;;;;;;12.60;61.75;99107.69;1739622;82;21725;-73
2021/04/30 01:44:13;;;;;;;12.13;9.08;;;;;;;12.57;61.88;99109.30;1740072;82;21195;-73
2021/04/30 01:46:40;;;;;;;13.13;9.35;;;;;;;12.54;62.01;99101.61;1738475;82;21156;-72
2021/04/30 01:49:11;;;;;;;12.68;9.60;;;;;;;12.65;61.78;99104.64;1733740;82;21143;-72
2021/04/30 01:51:42;;;;;;;11.70;9.75;;;;;;;12.62;61.72;99096.47;1730819;82;21655;-72
2021/04/30 01:54:09;;;;;;;12.28;9.63;;;;;;;12.57;61.81;99095.19;1723447;83;21228;-72
2021/04/30 01:56:36;;;;;;;12.28;9.68;;;;;;;12.48;61.93;99092.89;1723273;83;21646;-72
2021/04/30 01:59:06;;;;;;;12.33;9.20;;;;;;;12.42;62.11;99090.78;1723156;83;21166;-72
2021/04/30 02:01:34;;;;;;;12.20;9.20;;;;;;;12.43;62.16;99093.30;1723314;83;21163;-73
2021/04/30 02:04:01;;;;;;;12.68;10.63;;;;;;;12.50;62.00;99090.92;1723220;83;21191;-73
2021/04/30 02:06:29;;;;;;;12.95;9.63;;;;;;;12.45;62.01;99098.45;1723363;83;21774;-73
2021/04/30 02:08:56;;;;;;;12.75;9.45;;;;;;;12.38;62.21;99086.23;1723340;82;22259;-73
2021/04/30 02:11:24;;;;;;;13.62;10.05;;;;;;;12.34;62.39;99078.67;1723241;83;21182;-72
2021/04/30 02:13:51;;;;;;;11.40;8.40;;;;;;;12.29;62.54;99091.03;1723164;82;21147;-72
2021/04/30 02:16:18;;;;;;;13.93;9.38;;;;;;;12.31;62.56;99084.27;1732945;82;21127;-72
2021/04/30 02:18:45;;;;;;;12.45;9.78;;;;;;;12.40;62.40;99072.33;1727919;82;21592;-73
2021/04/30 02:21:13;;;;;;;11.43;9.78;;;;;;;12.35;62.50;99071.08;1738586;82;21167;-73
2021/04/30 02:23:40;;;;;;;12.00;9.93;;;;;;;12.27;62.67;99073.08;1736743;82;21191;-73
2021/04/30 02:26:07;;;;;;;13.80;10.45;;;;;;;12.21;62.93;99071.83;1723461;83;21647;-73
2021/04/30 02:28:34;;;;;;;10.23;8.43;;;;;;;12.13;63.02;99068.52;1723621;82;21256;-74
2021/04/30 02:31:01;;;;;;;11.33;9.45;;;;;;;12.15;63.10;99063.08;1721244;83;21161;-74
2021/04/30 02:33:29;;;;;;;10.53;9.30;;;;;;;12.25;62.90;99078.99;1723392;82;21337;-73
2021/04/30 02:35:56;;;;;;;11.88;9.60;;;;;;;12.22;62.94;99081.42;1729976;82;21266;-73
2021/04/30 02:38:23;;;;;;;12.18;9.13;;;;;;;12.17;63.05;99081.00;1738308;82;21202;-73
2021/04/30 02:40:52;;;;;;;11.28;9.35;;;;;;;12.13;63.16;99079.59;1737076;82;21180;-73
2021/04/30 02:43:20;;;;;;;13.78;8.90;;;;;;;12.11;63.29;99090.80;1732105;82;21166;-73
2021/04/30 02:45:51;;;;;;;11.18;9.25;;;;;;;12.18;63.19;99086.66;1735205;82;21285;-74
2021/04/30 02:48:29;;;;;;;12.03;9.10;;;;;;;12.25;62.99;99085.16;1728660;82;21611;-73
2021/04/30 02:50:53;;;;;;;14.95;9.73;;;;;;;12.22;63.00;99081.92;1701245;83;21290;-74
2021/04/30 02:53:20;;;;;;;12.33;9.38;;;;;;;12.18;63.08;99080.53;1713902;83;21730;-73
2021/04/30 02:55:48;;;;;;;10.35;8.25;;;;;;;12.15;63.10;99085.61;1715282;83;21559;-73
2021/04/30 02:58:18;;;;;;;10.53;8.08;;;;;;;12.17;63.13;99082.32;1717196;83;21159;-75
2021/04/30 03:00:45;;;;;;;12.37;9.48;;;;;;;12.33;62.82;99083.62;1706492;84;21604;-73
2021/04/30 03:03:12;;;;;;;12.58;9.20;;;;;;;12.32;62.71;99090.75;1707135;84;21167;-73
2021/04/30 03:05:40;;;;;;;12.03;9.33;;;;;;;12.31;62.71;99088.23;1707582;84;21265;-73
2021/04/30 03:08:07;;;;;;;12.03;9.55;;;;;;;12.26;62.78;99082.86;1709167;84;21333;-73
2021/04/30 03:10:34;;;;;;;10.98;7.92;;;;;;;12.23;62.84;99084.44;1706572;84;21571;-73
2021/04/30 03:13:03;;;;;;;11.08;8.25;;;;;;;12.25;62.83;99087.80;1707303;84;21627;-73
2021/04/30 03:15:30;;;;;;;12.13;9.00;;;;;;;12.37;62.45;99079.75;1710756;84;21135;-73
2021/04/30 03:17:57;;;;;;;12.18;8.70;;;;;;;12.34;62.52;99080.00;1709116;84;21127;-73
2021/04/30 03:20:24;;;;;;;13.90;8.85;;;;;;;12.28;62.65;99087.52;1709089;84;22123;-74
2021/04/30 03:22:53;;;;;;;10.93;8.50;;;;;;;12.26;62.65;99087.30;1717433;83;21160;-73
2021/04/30 03:25:20;;;;;;;9.88;7.90;;;;;;;12.24;62.64;99091.42;1713615;83;21151;-73
2021/04/30 03:27:49;;;;;;;9.58;7.67;;;;;;;12.31;62.61;99088.23;1709644;84;21366;-73
2021/04/30 03:30:20;;;;;;;10.45;8.33;;;;;;;12.42;62.16;99090.78;1712257;83;21168;-73
2021/04/30 03:32:47;;;;;;;11.80;8.58;;;;;;;12.40;62.09;99082.11;1715782;83;21317;-73
2021/04/30 03:35:18;;;;;;;10.43;8.50;;;;;;;12.35;62.03;99083.83;1708569;84;21123;-73
2021/04/30 03:37:49;;;;;;;11.45;8.08;;;;;;;12.32;62.13;99088.59;1709348;84;21151;-72
2021/04/30 03:40:16;;;;;;;11.78;7.53;;;;;;;12.31;62.11;99078.95;1706169;84;21592;-72
2021/04/30 03:42:44;;;;;;;11.50;8.60;;;;;;;12.41;61.96;99078.49;1707191;84;21289;-72
2021/04/30 03:45:13;;;;;;;9.50;7.72;;;;;;;12.58;61.76;99088.91;1705147;84;21164;-72
2021/04/30 03:47:40;;;;;;;11.65;7.92;;;;;;;12.82;61.02;99084.55;1706667;84;21486;-72
2021/04/30 03:50:09;;;;;;;11.50;8.15;;;;;;;13.09;60.36;99086.52;1730626;82;21144;-73
2021/04/30 03:52:36;;;;;;;9.90;8.03;;;;;;;13.20;59.60;99088.17;1737372;82;21690;-73
2021/04/30 03:55:04;;;;;;;18.10;8.35;;;;;;;13.17;59.64;99097.77;1735092;82;21156;-73
2021/04/30 03:57:32;;;;;;;11.38;7.92;;;;;;;13.09;59.45;99085.20;1738667;82;21242;-73
2021/04/30 03:59:59;;;;;;;10.23;6.90;;;;;;;13.00;59.58;99083.36;1725261;82;21170;-72
2021/04/30 04:02:26;;;;;;;9.55;6.87;;;;;;;12.98;59.71;99082.68;1728102;82;21182;-73
2021/04/30 04:04:53;;;;;;;12.10;7.05;;;;;;;13.06;59.34;99080.65;1723231;83;21198;-72
2021/04/30 04:07:23;;;;;;;8.33;6.90;;;;;;;13.01;59.51;99066.96;1723248;83;21132;-74
2021/04/30 04:09:52;;;;;;;10.00;7.60;;;;;;;12.95;59.59;99068.34;1727840;82;21180;-73
2021/04/30 04:12:19;;;;;;;9.83;7.55;;;;;;;12.88;59.71;99075.20;1738245;82;21219;-72
2021/04/30 04:14:47;;;;;;;8.95;6.95;;;;;;;12.84;59.79;99077.30;1723265;82;21694;-72
2021/04/30 04:17:16;;;;;;;11.85;7.37;;;;;;;12.81;59.76;99072.25;1723187;83;21276;-73
2021/04/30 04:21:20;;;;;;;9.00;7.08;;;;;;;12.90;59.65;99077.22;1801781;77;22212;-72
2021/04/30 04:23:48;;;;;;;11.00;7.47;;;;;;;12.96;59.58;99070.02;1786174;78;21324;-73
2021/04/30 04:26:15;;;;;;;12.35;7.47;;;;;;;13.30;59.01;99064.75;1777907;78;21158;-73
2021/04/30 04:28:46;;;;;;;8.83;6.90;;;;;;;13.63;57.86;99066.59;1701336;83;21576;-73
2021/04/30 04:31:15;;;;;;;9.43;7.22;;;;;;;13.73;57.41;99064.75;1700470;84;21223;-73
2021/04/30 04:33:42;;;;;;;11.60;7.42;;;;;;;13.76;57.28;99067.13;1726996;81;21169;-73
2021/04/30 04:36:12;;;;;;;10.15;7.28;;;;;;;13.84;57.24;99056.59;1753209;81;21178;-73
2021/04/30 04:38:41;;;;;;;12.68;7.08;;;;;;;13.99;56.86;99058.77;1762542;81;21742;-73
2021/04/30 04:41:08;;;;;;;16.20;7.20;;;;;;;14.24;56.53;99059.41;1762750;81;21169;-74
2021/04/30 04:43:37;;;;;;;12.78;6.90;;;;;;;14.38;55.97;99049.27;1730516;81;21214;-74
2021/04/30 04:46:05;;;;;;;12.93;7.30;;;;;;;14.48;55.59;99052.70;1730139;83;21334;-75
2021/04/30 04:48:32;;;;;;;25.57;7.90;;;;;;;14.63;55.31;99055.68;1733296;83;21193;-75
2021/04/30 04:51:00;;;;;;;10.95;7.12;;;;;;;14.90;54.85;99049.97;1726139;83;21182;-72
2021/04/30 04:53:29;;;;;;;8.98;6.70;;;;;;;15.39;53.45;99049.51;1746331;81;21339;-73
2021/04/30 04:55:59;;;;;;;13.38;7.25;;;;;;;15.39;53.45;99049.51;1734018;81;21320;-73
2021/04/30 04:58:26;;;;;;;18.87;8.10;;;;;;;15.53;52.84;99044.93;1735385;81;21180;-73
2021/04/30 05:00:54;;;;;;;11.85;6.97;;;;;;;15.54;52.64;99047.94;1721840;83;21141;-73
2021/04/30 05:03:21;;;;;;;9.60;6.97;;;;;;;15.50;52.68;99053.25;1721812;83;21331;-73
2021/04/30 05:05:48;;;;;;;12.43;7.05;;;;;;;15.39;53.14;99053.00;1722023;83;21149;-72
2021/04/30 05:08:17;;;;;;;14.00;7.00;;;;;;;15.32;53.58;99043.98;1724069;83;21151;-73
2021/04/30 05:10:45;;;;;;;9.35;6.65;;;;;;;15.33;53.67;99045.66;1721607;83;21141;-73
2021/04/30 05:13:12;;;;;;;11.05;6.87;;;;;;;15.37;53.66;99043.48;1721485;83;21141;-74
2021/04/30 05:15:42;;;;;;;21.45;7.72;;;;;;;15.36;53.71;99047.17;1726657;83;21154;-75
2021/04/30 05:18:09;;;;;;;59.40;10.32;;;;;;;15.30;53.93;99042.46;1734286;81;21298;-72
2021/04/30 05:20:37;;;;;;;9.95;6.65;;;;;;;15.27;54.13;99054.27;1727859;83;21666;-73
2021/04/30 05:23:04;;;;;;;11.15;6.97;;;;;;;15.22;54.21;99044.06;1729558;83;21297;-73
2021/04/30 05:25:32;;;;;;;15.55;7.37;;;;;;;15.17;54.58;99053.02;1725808;83;21141;-73
2021/04/30 05:28:01;;;;;;;15.28;7.65;;;;;;;15.12;54.80;99054.48;1729515;83;21214;-73
2021/04/30 05:30:30;;;;;;;11.90;7.12;;;;;;;15.07;54.65;99053.60;1725659;83;21247;-73
2021/04/30 05:32:58;;;;;;;11.93;7.05;;;;;;;14.98;54.95;99054.53;1727433;83;21179;-73
2021/04/30 05:35:25;;;;;;;9.50;7.03;;;;;;;14.90;55.23;99040.15;1723596;82;21142;-73
2021/04/30 05:37:53;;;;;;;14.07;8.00;;;;;;;14.86;55.54;99044.11;1706529;84;21736;-74
2021/04/30 05:40:20;;;;;;;11.57;7.50;;;;;;;14.85;55.73;99047.76;1720999;83;21175;-73
2021/04/30 05:42:48;;;;;;;12.88;7.47;;;;;;;14.81;55.85;99043.73;1739964;81;21159;-73
2021/04/30 05:45:15;;;;;;;10.18;7.78;;;;;;;14.77;56.23;99039.72;1726195;81;21186;-73
2021/04/30 05:47:44;;;;;;;11.83;8.00;;;;;;;14.77;56.27;99043.70;1727754;83;21714;-73
2021/04/30 05:50:12;;;;;;;11.73;7.08;;;;;;;14.77;56.33;99041.52;1729286;82;21171;-73
2021/04/30 05:52:42;;;;;;;9.38;7.50;;;;;;;14.78;56.34;99035.22;1755956;81;21269;-73
2021/04/30 05:55:11;;;;;;;10.75;7.58;;;;;;;14.80;56.59;99038.06;1713259;83;21183;-72
2021/04/30 05:57:39;;;;;;;11.03;7.20;;;;;;;14.91;56.74;99036.50;1703855;83;21324;-73
2021/04/30 06:00:10;;;;;;;11.95;7.85;;;;;;;15.12;56.42;99030.01;1705526;83;21184;-74
2021/04/30 06:02:41;;;;;;;11.20;7.55;;;;;;;15.34;55.98;99024.66;1703907;84;21212;-74
2021/04/30 06:05:09;;;;;;;10.90;8.00;;;;;;;15.50;55.34;99025.27;1703782;84;21171;-73
2021/04/30 06:07:36;;;;;;;13.98;7.55;;;;;;;15.66;55.04;99029.02;1712883;83;21580;-73
2021/04/30 06:10:06;;;;;;;12.82;7.37;;;;;;;15.78;55.02;99032.23;1754253;82;21145;-74
2021/04/30 06:12:33;;;;;;;15.80;9.90;;;;;;;15.92;54.87;99034.83;1750826;81;21440;-78
2021/04/30 06:15:02;;;;;;;17.95;9.73;;;;;;;16.12;54.54;99037.58;1726143;82;21190;-75
2021/04/30 06:17:30;;;;;;;8.48;7.08;;;;;;;16.34;54.04;99030.83;1743708;82;21640;-73
2021/04/30 06:19:57;;;;;;;50.67;9.55;;;;;;;16.55;53.47;99029.02;1719205;82;21166;-74
2021/04/30 06:22:24;;;;;;;58.25;10.85;;;;;;;16.67;53.32;99026.04;1697952;84;21165;-74
2021/04/30 06:24:52;;;;;;;15.38;8.55;;;;;;;16.73;52.95;99033.39;1682572;85;21138;-75
2021/04/30 06:27:19;;;;;;;13.35;7.80;;;;;;;16.72;52.67;99033.05;1685882;84;21133;-72
2021/04/30 06:29:48;;;;;;;13.60;8.48;;;;;;;16.66;52.88;99029.23;1682598;85;21182;-72
2021/04/30 06:32:17;;;;;;;23.50;8.18;;;;;;;16.63;53.07;99034.05;1685393;84;21186;-73
2021/04/30 06:34:46;;;;;;;24.67;8.65;;;;;;;16.64;53.33;99030.39;1677823;85;21335;-74
2021/04/30 06:37:14;;;;;;;11.18;8.00;;;;;;;16.72;53.25;99037.06;1678021;85;21158;-74
2021/04/30 06:39:43;;;;;;;13.60;7.40;;;;;;;16.88;53.00;99033.58;1674406;85;21336;-74
2021/04/30 06:42:10;;;;;;;13.68;7.90;;;;;;;17.03;52.45;99025.27;1677626;85;21621;-74
2021/04/30 06:44:39;;;;;;;10.75;7.40;;;;;;;17.15;52.06;99026.27;1677627;85;21213;-74
2021/04/30 06:47:07;;;;;;;11.93;8.45;;;;;;;17.18;52.14;99027.25;1675740;85;21319;-74
2021/04/30 06:49:36;;;;;;;12.88;7.92;;;;;;;17.22;52.37;99027.75;1677915;85;21284;-74
2021/04/30 06:52:04;;;;;;;21.48;8.33;;;;;;;17.26;52.11;99023.73;1677769;85;21335;-77
2021/04/30 06:54:32;;;;;;;12.45;7.75;;;;;;;17.24;51.94;99033.27;1704199;84;21307;-74
2021/04/30 06:56:59;;;;;;;12.63;8.13;;;;;;;17.21;52.34;99032.25;1648739;86;21208;-74
2021/04/30 06:59:28;;;;;;;10.13;7.62;;;;;;;17.23;52.30;99030.25;1657831;86;21158;-75
2021/04/30 07:01:55;;;;;;;10.98;7.58;;;;;;;17.30;52.10;99026.39;1684410;84;21209;-73
2021/04/30 07:04:24;;;;;;;20.82;8.10;;;;;;;17.40;52.19;99030.23;1696831;84;21147;-74
2021/04/30 07:06:52;;;;;;;14.78;8.03;;;;;;;17.57;52.03;99024.34;1697073;84;21340;-73
2021/04/30 07:09:21;;;;;;;11.70;7.85;;;;;;;17.76;51.59;99020.45;1697001;84;21203;-74
2021/04/30 07:11:49;;;;;;;14.95;8.18;;;;;;;17.93;51.51;99022.55;1697092;84;21186;-74
2021/04/30 07:14:17;;;;;;;40.08;9.88;;;;;;;18.05;50.76;99023.88;1696845;84;21189;-74
2021/04/30 07:16:44;;;;;;;12.85;7.42;;;;;;;18.10;51.03;99024.19;1697117;84;21182;-74
2021/04/30 07:19:11;;;;;;;30.80;9.35;;;;;;;18.16;50.57;99036.05;1697221;84;21635;-74
2021/04/30 07:21:38;;;;;;;15.05;8.90;;;;;;;18.17;50.88;99030.52;1724528;82;21174;-75
2021/04/30 07:24:08;;;;;;;15.53;8.30;;;;;;;18.22;50.56;99030.48;1732241;83;21151;-74
2021/04/30 07:26:36;;;;;;;14.03;8.00;;;;;;;18.24;50.84;99028.48;1732543;83;21544;-74
2021/04/30 07:29:03;;;;;;;12.65;7.87;;;;;;;18.25;50.33;99023.44;1732276;83;21194;-74
2021/04/30 07:31:31;;;;;;;15.88;9.13;;;;;;;18.25;50.85;99018.08;1732313;83;21202;-73
2021/04/30 07:33:59;;;;;;;12.05;8.20;;;;;;;18.30;50.66;99015.22;1730449;83;21150;-73
2021/04/30 07:36:29;;;;;;;22.15;8.50;;;;;;;18.38;50.76;99014.34;1730313;82;21639;-73
2021/04/30 07:38:59;;;;;;;17.73;8.83;;;;;;;18.43;50.77;99009.80;1714268;83;21663;-75
2021/04/30 07:41:26;;;;;;;11.93;8.38;;;;;;;18.51;50.44;99011.08;1713995;84;21206;-74
2021/04/30 07:43:57;;;;;;;12.68;8.25;;;;;;;18.65;50.56;99008.14;1714531;84;21175;-73
2021/04/30 07:46:26;;;;;;;39.25;10.50;;;;;;;18.74;50.08;98996.34;1714534;83;21664;-73
2021/04/30 07:48:56;;;;;;;18.77;9.10;;;;;;;18.79;49.71;98988.60;1732073;83;21150;-74
2021/04/30 07:51:24;;;;;;;11.50;8.30;;;;;;;18.77;49.73;98987.97;1732143;83;21171;-75
2021/04/30 07:53:51;;;;;;;15.53;8.38;;;;;;;18.74;49.89;98991.52;1734395;83;21171;-75
2021/04/30 07:56:21;;;;;;;13.65;8.85;;;;;;;18.73;50.46;98987.98;1724420;83;21821;-75
2021/04/30 07:58:48;;;;;;;15.43;8.68;;;;;;;18.85;50.35;98981.72;1714281;83;21301;-75
2021/04/30 08:01:15;;;;;;;16.05;8.60;;;;;;;19.03;50.43;98986.77;1714189;84;21207;-75
2021/04/30 08:03:44;;;;;;;17.40;8.83;;;;;;;19.18;49.85;98992.66;1726141;83;21171;-75
2021/04/30 08:06:13;;;;;;;12.82;8.38;;;;;;;19.29;50.12;98985.52;1731837;83;21678;-74
2021/04/30 08:08:40;;;;;;;17.20;9.65;;;;;;;19.44;49.60;98984.20;1723151;83;21155;-75
2021/04/30 08:11:08;;;;;;;294.48;25.75;;;;;;;19.53;49.05;98983.57;1720071;83;21190;-77
2021/04/30 08:13:35;;;;;;;17.23;8.65;;;;;;;19.58;49.68;98978.00;1718864;83;21191;-75
2021/04/30 08:16:03;;;;;;;15.15;8.40;;;;;;;19.69;49.19;98964.61;1714312;83;21182;-75
2021/04/30 08:18:31;;;;;;;11.68;7.90;;;;;;;19.76;49.23;98972.25;1724945;83;21178;-73
2021/04/30 08:20:59;;;;;;;14.30;8.25;;;;;;;19.83;48.90;98971.54;1738033;81;21186;-73
2021/04/30 08:23:27;;;;;;;21.05;7.90;;;;;;;19.86;49.59;98972.48;1728905;83;21211;-73
2021/04/30 08:25:55;;;;;;;31.12;8.03;;;;;;;19.95;48.83;98966.84;1728265;83;21326;-74
2021/04/30 08:28:23;;;;;;;20.00;8.48;;;;;;;19.98;48.13;98962.95;1689783;85;21203;-74
2021/04/30 08:30:50;;;;;;;114.37;15.48;;;;;;;19.96;48.62;98956.92;1718644;83;21301;-74
2021/04/30 08:33:17;;;;;;;12.45;8.10;;;;;;;19.94;48.88;98967.85;1710791;84;21220;-74
2021/04/30 08:35:45;;;;;;;10.85;8.35;;;;;;;19.90;49.14;98962.55;1710749;84;21625;-73
2021/04/30 08:38:12;;;;;;;12.88;7.53;;;;;;;19.91;48.96;98949.95;1710747;84;21208;-74
2021/04/30 08:40:39;;;;;;;13.70;8.10;;;;;;;19.95;49.11;98955.29;1711213;84;21373;-74
2021/04/30 08:43:06;;;;;;;53.08;9.70;;;;;;;20.03;49.20;98948.45;1711324;84;21170;-74
2021/04/30 08:45:33;;;;;;;23.47;9.15;;;;;;;20.10;49.09;98944.49;1711445;84;21398;-74
2021/04/30 08:48:02;;;;;;;17.45;8.43;;;;;;;20.20;48.87;98941.52;1679547;84;21170;-74
2021/04/30 08:50:30;;;;;;;11.73;8.43;;;;;;;20.26;48.42;98946.12;1715257;83;21142;-74
2021/04/30 08:52:57;;;;;;;11.63;7.90;;;;;;;20.30;48.45;98946.88;1731805;83;21641;-74
2021/04/30 08:55:25;;;;;;;18.27;8.68;;;;;;;20.34;48.45;98936.59;1731480;83;21186;-74
2021/04/30 08:57:54;;;;;;;17.10;7.37;;;;;;;20.39;48.25;98940.87;1731673;82;21178;-74
2021/04/30 09:00:24;;;;;;;17.00;7.55;;;;;;;20.31;47.92;98918.20;1707155;83;21753;-74
2021/04/30 09:02:51;;;;;;;15.32;7.97;;;;;;;20.39;47.60;98932.00;1731437;82;21221;-76
2021/04/30 09:05:25;;;;;;;8.18;7.28;;;;;;;20.39;47.73;98928.80;1731751;83;21695;-76
2021/04/30 09:07:55;;;;;;;12.82;7.85;;;;;;;20.39;47.76;98934.69;1731904;83;21167;-74
2021/04/30 09:10:22;;;;;;;8.80;6.78;;;;;;;20.37;48.46;98928.17;1731604;83;21115;-74
2021/04/30 09:13:14;;;;;;;8.08;6.37;;;;;;;20.42;48.40;98921.72;1731537;83;21171;-75
2021/04/30 09:15:43;;;;;;;10.13;6.60;;;;;;;20.54;47.67;98933.28;1721716;83;21188;-74
2021/04/30 09:18:25;;;;;;;12.07;7.33;;;;;;;20.65;47.64;98921.17;1711236;84;21204;-74
2021/04/30 09:20:57;;;;;;;15.03;7.42;;;;;;;20.76;47.77;98922.84;1708831;84;21214;-75
2021/04/30 09:23:47;;;;;;;13.37;7.03;;;;;;;20.91;47.13;98930.01;1699655;84;21171;-74
2021/04/30 09:26:28;;;;;;;9.65;6.78;;;;;;;20.95;46.83;98928.59;1702583;84;21222;-74
2021/04/30 09:29:10;;;;;;;9.00;5.90;;;;;;;20.95;46.08;98922.69;1706366;84;21297;-75
2021/04/30 09:31:40;;;;;;;23.10;7.47;;;;;;;20.87;45.67;98917.47;1702437;84;21297;-75
2021/04/30 09:34:31;;;;;;;10.45;6.50;;;;;;;20.79;46.04;98918.45;1702449;84;21148;-73
2021/04/30 09:37:16;;;;;;;10.43;6.50;;;;;;;20.81;46.81;98924.11;1702378;84;21204;-73
2021/04/30 09:39:58;;;;;;;11.53;6.45;;;;;;;20.89;46.09;98929.36;1702203;84;21382;-73
2021/04/30 09:42:30;;;;;;;12.60;6.95;;;;;;;20.97;45.90;98920.32;1702450;84;21635;-72
2021/04/30 09:45:06;;;;;;;9.58;6.12;;;;;;;21.02;45.70;98916.00;1702281;84;21434;-73
2021/04/30 09:47:37;;;;;;;9.65;5.53;;;;;;;21.06;45.08;98911.92;1702380;84;21163;-73
2021/04/30 09:50:23;;;;;;;73.90;9.83;;;;;;;21.03;45.25;98909.61;1702338;84;21345;-74
2021/04/30 09:52:58;;;;;;;58.10;9.05;;;;;;;20.99;45.44;98911.03;1697263;83;21297;-74
2021/04/30 09:55:47;;;;;;;10.20;5.95;;;;;;;20.88;45.67;98915.11;1702037;84;21167;-73
2021/04/30 09:58:29;;;;;;;9.83;6.62;;;;;;;20.82;45.85;98908.31;1702516;84;21508;-74
2021/04/30 10:01:00;;;;;;;7.25;5.58;;;;;;;20.82;45.78;98902.94;1702521;84;21179;-74
2021/04/30 10:03:30;;;;;;;8.18;5.75;;;;;;;20.86;46.41;98902.89;1678943;84;21325;-74
2021/04/30 10:06:15;;;;;;;10.55;6.45;;;;;;;21.01;46.13;98903.62;1702620;83;21273;-74
2021/04/30 10:09:06;;;;;;;10.10;6.90;;;;;;;21.18;45.41;98888.00;1702442;84;21333;-73
2021/04/30 10:11:34;;;;;;;9.90;6.03;;;;;;;21.33;45.73;98887.87;1702490;84;21166;-76
2021/04/30 10:14:03;;;;;;;11.97;6.35;;;;;;;21.44;44.37;98887.31;1702431;84;21147;-73
2021/04/30 10:16:31;;;;;;;12.07;5.85;;;;;;;21.48;44.70;98887.72;1702433;83;21210;-74
2021/04/30 10:18:58;;;;;;;12.40;6.70;;;;;;;21.53;44.93;98879.06;1702629;84;21325;-73
2021/04/30 10:21:25;;;;;;;28.75;6.95;;;;;;;21.61;44.71;98868.14;1653118;84;21229;-74
2021/04/30 10:23:55;;;;;;;32.48;8.00;;;;;;;21.68;44.54;98862.28;1711282;82;21181;-73
2021/04/30 10:26:22;;;;;;;10.03;6.40;;;;;;;21.71;44.57;98861.87;1711165;84;21174;-73
2021/04/30 10:28:52;;;;;;;14.35;6.22;;;;;;;21.84;44.51;98873.22;1711132;84;21230;-73
2021/04/30 10:31:31;;;;;;;13.28;6.10;;;;;;;21.93;43.79;98863.06;1754056;82;21173;-73
2021/04/30 10:34:12;;;;;;;8.00;5.90;;;;;;;21.89;44.07;98873.94;1754353;82;21141;-73
2021/04/30 10:36:43;;;;;;;25.55;6.30;;;;;;;21.87;43.89;98867.41;1754367;82;21327;-74
2021/04/30 10:39:32;;;;;;;10.05;5.70;;;;;;;21.84;44.47;98862.45;1747931;81;21386;-75
2021/04/30 10:42:11;;;;;;;11.68;6.05;;;;;;;21.93;44.66;98861.72;1731959;83;21209;-74
2021/04/30 10:44:46;;;;;;;6.40;5.00;;;;;;;21.99;44.26;98849.33;1736439;82;21192;-74
2021/04/30 10:47:21;;;;;;;40.83;8.68;;;;;;;22.04;44.41;98842.81;1727211;83;21282;-73
2021/04/30 10:50:14;;;;;;;31.87;7.42;;;;;;;22.05;44.32;98849.33;1733100;82;21132;-73
2021/04/30 10:52:41;;;;;;;15.53;6.33;;;;;;;22.06;43.84;98838.88;1749418;82;21584;-74
2021/04/30 10:55:18;;;;;;;27.80;6.87;;;;;;;22.15;43.30;98854.33;1749265;82;21310;-74
2021/04/30 10:57:53;;;;;;;48.40;8.23;;;;;;;22.21;43.67;98849.97;1749098;82;21781;-74
2021/04/30 11:00:40;;;;;;;8.65;5.50;;;;;;;22.24;43.00;98846.34;1749983;82;21163;-74
2021/04/30 11:03:23;;;;;;;11.68;5.62;;;;;;;22.27;43.07;98853.19;1739041;82;21179;-74
2021/04/30 11:06:04;;;;;;;56.37;9.00;;;;;;;22.28;43.18;98846.77;1739652;82;21294;-74
2021/04/30 11:08:48;;;;;;;65.40;9.33;;;;;;;22.31;43.50;98838.27;1749763;82;21157;-75
2021/04/30 11:11:16;;;;;;;13.93;5.60;;;;;;;22.41;43.44;98841.94;1720814;82;21320;-74
2021/04/30 11:14:12;;;;;;;23.20;6.15;;;;;;;22.45;43.10;98836.97;1728179;82;21193;-74
2021/04/30 11:16:41;;;;;;;16.37;5.70;;;;;;;22.51;43.36;98840.19;1719181;83;21217;-74
2021/04/30 11:19:11;;;;;;;8.00;5.33;;;;;;;22.58;42.22;98836.45;1719547;83;21208;-75
2021/04/30 11:21:54;;;;;;;19.52;6.42;;;;;;;22.58;42.63;98832.91;1722532;82;21148;-74
2021/04/30 11:24:31;;;;;;;45.15;7.30;;;;;;;22.59;42.88;98825.14;1728692;82;21172;-74
2021/04/30 11:27:21;;;;;;;9.00;5.83;;;;;;;22.64;42.97;98823.98;1751514;82;21123;-74
2021/04/30 11:29:48;;;;;;;26.55;6.72;;;;;;;22.68;43.05;98823.88;1747193;82;21151;-74
2021/04/30 11:32:27;;;;;;;11.78;5.25;;;;;;;22.68;42.78;98819.83;1727218;83;21626;-74
2021/04/30 11:34:58;;;;;;;16.27;5.87;;;;;;;22.72;42.20;98821.09;1730511;83;21754;-74
2021/04/30 11:37:28;;;;;;;49.48;7.28;;;;;;;22.82;41.89;98817.13;1730416;83;21211;-75
2021/04/30 11:40:37;;;;;;;12.28;5.15;;;;;;;23.01;41.69;98808.16;1779880;79;23129;-74